Las Vegas, Nevada
Current Conditions -  °F | °C
As of 11:56 PM on Sunday 25 Jan 2015 (Local Time) from KLAS Reporting Station
Broken Clouds Broken Clouds  
Wind Chill: 56°   Ceiling: 25000
Heat Index: 56°   Visibility: 10mi
Dew Point: 33°   Wind: 7mph
Humidity: 42%   Direction: 170°S
Pressure: 30.14"   Gusts: NA
Location:  36.17°N, 115.13°W
Report Text: KLAS 260756Z 17006KT 10SM BKN250 13/01 A3014 RMK AO2 SLP195 T01330006 402280072
Loading
Personal Weather Stations






























Interactive Weather Map New forecast layout! Learn more

10-Day Weather Forecast

Advertisements
Track Severe Weather on mobile